Time;durP1;ratioP1;P1;durP2;ratioP2;P2;SDS_P1;SDS_P2;PMS_P1;PMS_P2;Temp;Humidity;BMP_temperature;BMP_pressure;BME280_temperature;BME280_humidity;BME280_pressure;Samples;Min_cycle;Max_cycle;Signal;HPM_P1;HPM_P2
2022/02/24 00:01:00;;;;;;;17.80;6.72;;;5.00;99.90;;;-146.41;100.00;57768.22;4981345;28;20047;-68
2022/02/24 00:03:28;;;;;;;20.13;8.13;;;5.10;99.90;;;-146.41;100.00;57768.22;4980142;28;20129;-68
2022/02/24 00:05:56;;;;;;;18.25;6.60;;;5.20;99.90;;;-146.41;100.00;57768.22;4983921;28;20125;-68
2022/02/24 00:08:23;;;;;;;23.85;9.00;;;5.10;99.90;;;-146.41;100.00;57768.22;4983515;28;20038;-68
2022/02/24 00:10:50;;;;;;;26.27;9.77;;;5.20;99.90;;;-146.41;100.00;57768.22;4982666;28;20137;-68
2022/02/24 00:13:18;;;;;;;24.27;9.40;;;5.10;99.90;;;-146.41;100.00;57768.22;4976349;28;20069;-67
2022/02/24 00:15:45;;;;;;;31.80;13.40;;;5.10;99.90;;;-146.41;100.00;57768.22;4981875;28;20075;-68
2022/02/24 00:18:12;;;;;;;25.15;10.55;;;5.20;99.90;;;-146.41;100.00;57768.22;4979961;28;20511;-68
2022/02/24 00:20:39;;;;;;;28.48;10.18;;;5.30;99.90;;;-146.41;100.00;57768.22;4979460;28;20541;-67
2022/02/24 00:23:06;;;;;;;25.95;10.85;;;5.30;99.90;;;-146.41;100.00;57768.22;4977988;28;20050;-68
2022/02/24 00:25:33;;;;;;;22.95;8.85;;;5.40;99.90;;;-146.41;100.00;57768.22;4980825;28;20092;-67
2022/02/24 00:28:00;;;;;;;23.83;9.95;;;5.40;99.90;;;-146.41;100.00;57768.22;4980380;28;20081;-68
2022/02/24 00:30:27;;;;;;;21.33;7.43;;;5.40;99.90;;;-146.41;100.00;57768.22;4982875;28;20054;-67
2022/02/24 00:32:54;;;;;;;15.05;5.93;;;5.50;99.90;;;-146.41;100.00;57768.22;4979628;28;20078;-67
2022/02/24 00:35:21;;;;;;;17.60;6.05;;;5.70;99.90;;;-146.41;100.00;57768.22;4979420;28;20086;-68
2022/02/24 00:37:48;;;;;;;15.35;5.93;;;5.70;99.90;;;-146.41;100.00;57768.22;4975391;28;20100;-68
2022/02/24 00:40:15;;;;;;;16.80;6.22;;;5.70;99.90;;;-146.41;100.00;57768.22;4981057;28;20245;-68
2022/02/24 00:42:42;;;;;;;11.43;4.40;;;5.70;99.90;;;-146.41;100.00;57768.22;4979023;28;20062;-67
2022/02/24 00:45:10;;;;;;;11.60;4.22;;;5.80;99.90;;;-146.41;100.00;57768.22;4981404;28;20062;-68
2022/02/24 00:47:37;;;;;;;12.65;3.88;;;5.90;99.90;;;-146.41;100.00;57768.22;4977848;28;20082;-68
2022/02/24 00:50:05;;;;;;;15.05;4.13;;;5.90;99.90;;;-146.41;100.00;57768.22;4982474;28;20081;-68
2022/02/24 00:52:31;;;;;;;11.07;3.40;;;6.00;99.90;;;-146.41;100.00;57768.22;4975858;28;20126;-68
2022/02/24 00:54:58;;;;;;;13.23;4.70;;;5.90;99.90;;;-146.41;100.00;57768.22;4982020;28;20237;-68
2022/02/24 00:57:25;;;;;;;7.68;2.40;;;6.00;99.90;;;-146.41;100.00;57768.22;4981904;28;20487;-68
2022/02/24 00:59:52;;;;;;;13.43;4.13;;;6.00;99.90;;;-146.41;100.00;57768.22;4982858;28;20532;-68
2022/02/24 01:02:20;;;;;;;13.13;5.18;;;6.10;99.90;;;-146.41;100.00;57768.22;4974688;28;20125;-67
2022/02/24 01:04:47;;;;;;;11.20;4.07;;;6.10;99.90;;;-146.41;100.00;57768.22;4970184;28;20101;-68
2022/02/24 01:07:17;;;;;;;11.55;4.30;;;6.10;99.90;;;-146.41;100.00;57768.22;4980793;28;20054;-68
2022/02/24 01:09:44;;;;;;;9.43;3.60;;;6.10;99.90;;;-146.41;100.00;57768.22;4976552;28;20046;-68
2022/02/24 01:12:11;;;;;;;10.63;3.50;;;6.10;99.90;;;-146.41;100.00;57768.22;4978250;28;20097;-68
2022/02/24 01:14:38;;;;;;;9.48;2.90;;;6.20;99.90;;;-146.41;100.00;57768.22;4978386;28;20124;-68
2022/02/24 01:17:05;;;;;;;8.07;2.65;;;6.20;99.90;;;-146.41;100.00;57768.22;4978521;28;20568;-68
2022/02/24 01:19:32;;;;;;;12.60;3.00;;;6.30;99.90;;;-146.41;100.00;57768.22;4975716;28;20472;-67
2022/02/24 01:21:59;;;;;;;9.93;3.15;;;6.30;99.90;;;-146.41;100.00;57768.22;4978929;28;20042;-68
2022/02/24 01:24:26;;;;;;;9.35;2.65;;;6.30;99.90;;;-146.41;100.00;57768.22;4978330;28;20510;-68
2022/02/24 01:26:53;;;;;;;9.73;2.63;;;6.40;99.90;;;-146.41;100.00;57768.22;4976678;28;20136;-68
2022/02/24 01:29:22;;;;;;;8.23;1.95;;;6.40;99.90;;;-146.41;100.00;57768.22;4972468;28;20047;-67
2022/02/24 01:31:49;;;;;;;7.22;2.55;;;6.50;99.90;;;-146.41;100.00;57768.22;4976088;28;20046;-68
2022/02/24 01:34:19;;;;;;;7.82;2.72;;;6.40;99.90;;;-146.41;100.00;57768.22;4982519;28;20141;-68
2022/02/24 01:36:47;;;;;;;10.95;3.00;;;6.40;99.90;;;-146.41;100.00;57768.22;4976305;28;20078;-68
2022/02/24 01:39:14;;;;;;;8.52;2.42;;;6.40;99.90;;;-146.41;100.00;57768.22;4983098;28;20085;-68
2022/02/24 01:41:41;;;;;;;12.52;2.60;;;6.40;99.90;;;-146.41;100.00;57768.22;4973566;28;20165;-68
2022/02/24 01:44:13;;;;;;;10.93;3.10;;;6.50;99.90;;;-146.41;100.00;57768.22;4980038;28;20050;-68
2022/02/24 01:46:42;;;;;;;9.07;3.17;;;6.50;99.90;;;-146.41;100.00;57768.22;4984667;28;20418;-68
2022/02/24 01:49:11;;;;;;;7.07;1.90;;;6.50;99.90;;;-146.41;100.00;57768.22;4980397;28;20042;-68
2022/02/24 01:51:38;;;;;;;7.03;1.60;;;6.60;99.90;;;-146.41;100.00;57768.22;4975526;28;20082;-68
2022/02/24 01:54:07;;;;;;;5.43;2.20;;;6.60;99.90;;;-146.41;100.00;57768.22;4980639;28;20069;-68
2022/02/24 01:56:35;;;;;;;10.65;2.95;;;6.60;99.90;;;-146.41;100.00;57768.22;4975171;28;20515;-68
2022/02/24 01:59:03;;;;;;;5.15;2.28;;;6.70;99.90;;;-146.41;100.00;57768.22;4975225;28;20078;-68
2022/02/24 02:01:31;;;;;;;7.15;2.17;;;6.60;99.90;;;-146.41;100.00;57768.22;4976250;28;20081;-68
2022/02/24 02:03:59;;;;;;;9.80;1.70;;;6.70;99.90;;;-146.41;100.00;57768.22;4975327;28;20053;-68
2022/02/24 02:06:26;;;;;;;6.40;1.77;;;6.70;99.90;;;-146.41;100.00;57768.22;4967309;28;20520;-68
2022/02/24 02:08:53;;;;;;;7.78;1.98;;;6.70;99.90;;;-146.41;100.00;57768.22;4977979;28;20074;-68
2022/02/24 02:11:19;;;;;;;7.32;1.95;;;6.70;99.90;;;-146.41;100.00;57768.22;4972779;28;20267;-68
2022/02/24 02:13:46;;;;;;;7.28;1.90;;;6.70;99.90;;;-146.41;100.00;57768.22;4974216;28;20590;-68
2022/02/24 02:16:14;;;;;;;5.43;2.00;;;6.80;99.90;;;-146.41;100.00;57768.22;4979852;28;20117;-68
2022/02/24 02:18:42;;;;;;;8.90;1.67;;;6.80;99.90;;;-146.41;100.00;57768.22;4978834;28;20521;-68
2022/02/24 02:21:10;;;;;;;9.40;2.53;;;6.70;99.90;;;-146.41;100.00;57768.22;4967418;28;20115;-68
2022/02/24 02:23:37;;;;;;;8.18;1.80;;;6.70;99.90;;;-146.41;100.00;57768.22;4980397;28;20057;-68
2022/02/24 02:26:04;;;;;;;6.15;1.58;;;6.60;99.90;;;-146.41;100.00;57768.22;4973795;28;20056;-68
2022/02/24 02:28:31;;;;;;;7.60;2.20;;;6.70;99.90;;;-146.41;100.00;57768.22;4978136;28;20085;-68
2022/02/24 02:30:59;;;;;;;6.47;1.73;;;6.70;99.90;;;-146.41;100.00;57768.22;4975638;28;20114;-68
2022/02/24 02:33:26;;;;;;;4.72;1.67;;;6.70;99.90;;;-146.41;100.00;57768.22;4976523;28;20050;-68
2022/02/24 02:35:53;;;;;;;7.97;1.70;;;6.70;99.90;;;-146.41;100.00;57768.22;4980595;28;20451;-68
2022/02/24 02:38:22;;;;;;;6.45;1.42;;;6.70;99.90;;;-146.41;100.00;57768.22;4981617;28;20128;-68
2022/02/24 02:40:49;;;;;;;6.78;1.88;;;6.70;99.90;;;-146.41;100.00;57768.22;4979637;28;20141;-68
2022/02/24 02:43:16;;;;;;;7.40;1.88;;;6.60;99.90;;;-146.41;100.00;57768.22;4975248;28;20089;-68
2022/02/24 02:45:43;;;;;;;6.07;1.58;;;6.60;99.90;;;-146.41;100.00;57768.22;4981830;28;20478;-68
2022/02/24 02:48:10;;;;;;;10.07;2.05;;;6.70;99.90;;;-146.41;100.00;57768.22;4979632;28;20051;-67
2022/02/24 02:50:37;;;;;;;9.30;1.90;;;6.70;99.90;;;-146.41;100.00;57768.22;4963145;28;20066;-68
2022/02/24 02:53:05;;;;;;;6.60;1.80;;;6.60;99.90;;;-146.41;100.00;57768.22;4979065;28;20089;-67
2022/02/24 02:55:33;;;;;;;8.38;1.88;;;6.70;99.90;;;-146.41;100.00;57768.22;4980480;28;20121;-67
2022/02/24 02:58:00;;;;;;;5.15;1.65;;;6.70;99.90;;;-146.41;100.00;57768.22;4982090;28;20051;-68
2022/02/24 03:00:27;;;;;;;7.88;1.20;;;6.70;99.90;;;-146.41;100.00;57768.22;4979139;28;20455;-68
2022/02/24 03:02:54;;;;;;;6.88;1.50;;;6.70;99.90;;;-146.41;100.00;57768.22;4979131;28;20046;-67
2022/02/24 03:05:22;;;;;;;6.30;1.30;;;6.80;99.90;;;-146.41;100.00;57768.22;4975611;28;20050;-68
2022/02/24 03:07:50;;;;;;;6.63;1.60;;;6.80;99.90;;;-146.41;100.00;57768.22;4984835;28;20133;-68
2022/02/24 03:10:17;;;;;;;8.98;1.52;;;6.70;99.90;;;-146.41;100.00;57768.22;4979857;28;20515;-68
2022/02/24 03:12:45;;;;;;;5.28;1.52;;;6.70;99.90;;;-146.41;100.00;57768.22;4981981;28;20548;-68
2022/02/24 03:15:14;;;;;;;9.15;1.92;;;6.80;99.90;;;-146.41;100.00;57768.22;4984258;28;20190;-68
2022/02/24 03:17:43;;;;;;;5.57;1.67;;;6.80;99.90;;;-146.41;100.00;57768.22;4984034;28;20046;-68
2022/02/24 03:20:12;;;;;;;5.10;1.80;;;6.80;99.90;;;-146.41;100.00;57768.22;4972550;28;20055;-68
2022/02/24 03:22:39;;;;;;;6.22;1.65;;;6.80;99.90;;;-146.41;100.00;57768.22;4967415;28;20051;-68
2022/02/24 03:25:07;;;;;;;5.57;1.50;;;6.80;99.90;;;-146.41;100.00;57768.22;4961950;28;20197;-68
2022/02/24 03:27:34;;;;;;;8.95;1.70;;;6.80;99.90;;;-146.41;100.00;57768.22;4980799;28;20503;-67
2022/02/24 03:30:04;;;;;;;6.85;1.58;;;6.80;99.90;;;-146.41;100.00;57768.22;4984668;28;20089;-67
2022/02/24 03:32:31;;;;;;;6.63;1.40;;;6.70;99.90;;;-146.41;100.00;57768.22;4985442;28;20054;-67
2022/02/24 03:34:58;;;;;;;7.10;1.38;;;6.80;99.90;;;-146.41;100.00;57768.22;4982244;28;20563;-68
2022/02/24 03:37:25;;;;;;;8.07;1.55;;;6.80;99.90;;;-146.41;100.00;57768.22;4980519;28;20072;-67
2022/02/24 03:39:52;;;;;;;9.13;1.58;;;6.80;99.90;;;-146.41;100.00;57768.22;4980914;28;20078;-67
2022/02/24 03:42:19;;;;;;;6.97;1.45;;;6.80;99.90;;;-146.41;100.00;57768.22;4983038;28;20128;-68
2022/02/24 03:44:46;;;;;;;6.15;1.55;;;6.80;99.90;;;-146.41;100.00;57768.22;4984262;28;20133;-68
2022/02/24 03:47:13;;;;;;;5.40;1.20;;;6.80;99.90;;;-146.41;100.00;57768.22;4979717;28;20050;-67
2022/02/24 03:49:45;;;;;;;5.07;1.48;;;6.80;99.90;;;-146.41;100.00;57768.22;4981059;28;20448;-68
2022/02/24 03:52:12;;;;;;;4.13;1.50;;;6.80;99.90;;;-146.41;100.00;57768.22;4980661;28;20185;-69
2022/02/24 03:54:39;;;;;;;4.85;1.20;;;6.80;99.90;;;-146.41;100.00;57768.22;4984518;28;20145;-68
2022/02/24 03:57:06;;;;;;;6.55;1.52;;;6.80;99.90;;;-146.41;100.00;57768.22;4983182;28;20178;-68
2022/02/24 03:59:34;;;;;;;5.88;1.55;;;6.80;99.90;;;-146.41;100.00;57768.22;4984903;28;20081;-68
2022/02/24 04:02:03;;;;;;;7.68;1.77;;;6.80;99.90;;;-146.41;100.00;57768.22;4981012;28;20530;-68
2022/02/24 04:04:31;;;;;;;4.65;1.27;;;6.80;99.90;;;-146.41;100.00;57768.22;4980172;28;20062;-68
2022/02/24 04:06:58;;;;;;;6.45;1.30;;;6.80;99.90;;;-146.41;100.00;57768.22;4974894;28;20078;-68
2022/02/24 04:09:25;;;;;;;6.45;1.40;;;6.80;99.90;;;-146.41;100.00;57768.22;4981734;28;20073;-68
2022/02/24 04:11:53;;;;;;;6.70;1.50;;;6.80;99.90;;;-146.41;100.00;57768.22;4964788;28;20446;-69
2022/02/24 04:14:21;;;;;;;5.75;1.58;;;6.80;99.90;;;-146.41;100.00;57768.22;4982042;28;20221;-67
2022/02/24 04:16:49;;;;;;;5.80;1.60;;;6.80;99.90;;;-146.41;100.00;57768.22;4977825;28;20666;-67
2022/02/24 04:19:16;;;;;;;3.80;1.05;;;6.90;99.90;;;-146.41;100.00;57768.22;4964114;28;20050;-67
2022/02/24 04:21:43;;;;;;;5.45;1.27;;;6.90;99.90;;;-146.41;100.00;57768.22;4966614;28;20050;-67
2022/02/24 04:24:11;;;;;;;4.25;1.30;;;6.90;99.90;;;-146.41;100.00;57768.22;4977412;28;20174;-67
2022/02/24 04:26:38;;;;;;;7.70;1.40;;;7.00;99.90;;;-146.41;100.00;57768.22;4977802;28;20628;-67
2022/02/24 04:29:05;;;;;;;6.97;1.40;;;6.90;99.90;;;-146.41;100.00;57768.22;4985908;28;20116;-67
2022/02/24 04:31:32;;;;;;;5.80;1.55;;;6.90;99.90;;;-146.41;100.00;57768.22;4983893;28;20058;-66
2022/02/24 04:33:59;;;;;;;6.60;1.40;;;6.90;99.90;;;-146.41;100.00;57768.22;4983811;28;20042;-67
2022/02/24 04:36:26;;;;;;;5.95;1.42;;;6.90;99.90;;;-146.41;100.00;57768.22;4964393;28;20058;-67
2022/02/24 04:38:53;;;;;;;6.07;1.58;;;6.90;99.90;;;-146.41;100.00;57768.22;4982258;28;20610;-67
2022/02/24 04:41:20;;;;;;;5.15;1.30;;;6.90;99.90;;;-146.41;100.00;57768.22;4983730;28;20466;-66
2022/02/24 04:43:47;;;;;;;6.25;1.40;;;6.80;99.90;;;-146.41;100.00;57768.22;4984282;28;20054;-66
2022/02/24 04:46:15;;;;;;;6.53;1.33;;;6.80;99.90;;;-146.41;100.00;57768.22;4980455;28;20431;-67
2022/02/24 04:48:43;;;;;;;6.78;1.60;;;6.80;99.90;;;-146.41;100.00;57768.22;4981431;28;20103;-67
2022/02/24 04:51:10;;;;;;;5.13;1.48;;;6.80;99.90;;;-146.41;100.00;57768.22;4966893;28;20051;-67
2022/02/24 04:53:37;;;;;;;7.60;1.25;;;6.80;99.90;;;-146.41;100.00;57768.22;4976807;28;20404;-66
2022/02/24 04:56:06;;;;;;;5.00;1.50;;;6.90;99.90;;;-146.41;100.00;57768.22;4983469;28;20125;-67
2022/02/24 04:58:34;;;;;;;5.07;1.10;;;6.80;99.90;;;-146.41;100.00;57768.22;4980670;28;20418;-67
2022/02/24 05:01:01;;;;;;;4.07;1.08;;;6.80;99.90;;;-146.41;100.00;57768.22;4979600;28;20151;-67
2022/02/24 05:03:29;;;;;;;4.05;1.20;;;6.80;99.90;;;-146.41;100.00;57768.22;4982149;28;20114;-67
2022/02/24 05:05:56;;;;;;;5.70;1.35;;;6.80;99.90;;;-146.41;100.00;57768.22;4973807;28;20085;-67
2022/02/24 05:08:23;;;;;;;4.90;1.13;;;6.80;99.90;;;-146.41;100.00;57768.22;4959256;28;20119;-67
2022/02/24 05:10:51;;;;;;;6.82;1.35;;;6.80;99.90;;;-146.41;100.00;57768.22;4982431;28;20527;-66
2022/02/24 05:13:20;;;;;;;4.80;1.30;;;6.80;99.90;;;-146.41;100.00;57768.22;4980615;28;20055;-67
2022/02/24 05:15:49;;;;;;;5.20;1.33;;;6.80;99.90;;;-146.41;100.00;57768.22;4982751;28;20499;-66
2022/02/24 05:18:16;;;;;;;7.65;1.42;;;6.90;99.90;;;-146.41;100.00;57768.22;4976892;28;20132;-67
2022/02/24 05:20:43;;;;;;;7.53;1.20;;;6.90;99.90;;;-146.41;100.00;57768.22;4978716;28;20054;-67
2022/02/24 05:23:10;;;;;;;6.50;1.20;;;6.80;99.90;;;-146.41;100.00;57768.22;4979530;28;20544;-67
2022/02/24 05:25:37;;;;;;;5.22;1.23;;;6.90;99.90;;;-146.41;100.00;57768.22;4979895;28;20073;-67
2022/02/24 05:28:09;;;;;;;5.35;1.50;;;6.90;99.90;;;-146.41;100.00;57768.22;4982069;28;20472;-66
2022/02/24 05:30:38;;;;;;;6.67;1.17;;;6.90;99.90;;;-146.41;100.00;57768.22;4980504;28;20462;-67
2022/02/24 05:33:09;;;;;;;5.70;1.27;;;6.80;99.90;;;-146.41;100.00;57768.22;4969119;28;20046;-67
2022/02/24 05:35:36;;;;;;;6.38;1.15;;;6.90;99.90;;;-146.41;100.00;57768.22;4978284;28;20113;-67
2022/02/24 05:38:03;;;;;;;5.45;1.10;;;6.90;99.90;;;-146.41;100.00;57768.22;4979592;28;20054;-67
2022/02/24 05:40:30;;;;;;;4.45;1.38;;;6.90;99.90;;;-146.41;100.00;57768.22;4978256;28;20122;-67
2022/02/24 05:42:58;;;;;;;5.72;1.45;;;6.90;99.90;;;-146.41;100.00;57768.22;4980526;28;20061;-68
2022/02/24 05:45:26;;;;;;;6.53;1.30;;;6.90;99.90;;;-146.41;100.00;57768.22;4982905;28;20050;-67
2022/02/24 05:47:53;;;;;;;6.60;1.30;;;6.90;99.90;;;-146.41;100.00;57768.22;4979185;28;20042;-67
2022/02/24 05:50:20;;;;;;;8.68;1.63;;;6.90;99.90;;;-146.41;100.00;57768.22;4980575;28;20051;-67
2022/02/24 05:52:48;;;;;;;5.55;1.38;;;6.90;99.90;;;-146.41;100.00;57768.22;4978524;28;20046;-67
2022/02/24 05:55:15;;;;;;;2.72;1.05;;;6.90;99.90;;;-146.41;100.00;57768.22;4976026;28;20530;-67
2022/02/24 05:57:45;;;;;;;4.20;1.17;;;6.90;99.90;;;-146.41;100.00;57768.22;4962111;28;20100;-67
2022/02/24 06:00:14;;;;;;;5.90;1.20;;;6.90;99.90;;;-146.41;100.00;57768.22;4980846;28;20055;-66
2022/02/24 06:02:41;;;;;;;3.92;1.00;;;6.90;99.90;;;-146.41;100.00;57768.22;4978798;28;20146;-67
2022/02/24 06:05:08;;;;;;;5.53;1.58;;;6.90;99.90;;;-146.41;100.00;57768.22;4980469;28;20478;-66
2022/02/24 06:07:35;;;;;;;7.35;1.40;;;6.90;99.90;;;-146.41;100.00;57768.22;4977368;28;20077;-67
2022/02/24 06:10:05;;;;;;;8.48;2.65;;;6.90;99.90;;;-146.41;100.00;57768.22;4983080;28;20130;-67
2022/02/24 06:12:32;;;;;;;5.72;1.95;;;7.00;99.90;;;-146.41;100.00;57768.22;4964481;28;20078;-68
2022/02/24 06:14:59;;;;;;;7.57;1.83;;;7.00;99.90;;;-146.41;100.00;57768.22;4980678;28;20129;-67
2022/02/24 06:17:26;;;;;;;4.55;1.10;;;6.90;99.90;;;-146.41;100.00;57768.22;4982359;28;20077;-67
2022/02/24 06:19:53;;;;;;;6.40;1.45;;;6.90;99.90;;;-146.41;100.00;57768.22;4981183;28;20080;-67
2022/02/24 06:22:21;;;;;;;2.97;1.10;;;6.90;99.90;;;-146.41;100.00;57768.22;4978863;28;20550;-67
2022/02/24 06:24:50;;;;;;;6.00;1.30;;;7.00;99.90;;;-146.41;100.00;57768.22;4982535;28;20085;-67
2022/02/24 06:27:19;;;;;;;5.32;1.55;;;6.90;99.90;;;-146.41;100.00;57768.22;4973343;28;20061;-66
2022/02/24 06:29:47;;;;;;;3.45;1.48;;;6.90;99.90;;;-146.41;100.00;57768.22;4978153;28;20101;-66
2022/02/24 06:32:14;;;;;;;7.47;1.70;;;6.90;99.90;;;-146.41;100.00;57768.22;4976757;28;20373;-66
2022/02/24 06:34:42;;;;;;;5.53;1.20;;;6.90;99.90;;;-146.41;100.00;57768.22;4978540;28;20039;-66
2022/02/24 06:37:10;;;;;;;5.95;1.83;;;6.90;99.90;;;-146.41;100.00;57768.22;4978287;28;20141;-67
2022/02/24 06:39:37;;;;;;;6.85;1.17;;;7.00;99.90;;;-146.41;100.00;57768.22;4964885;28;20055;-67
2022/02/24 06:42:07;;;;;;;5.85;1.30;;;7.00;99.90;;;-146.41;100.00;57768.22;4979534;28;20504;-67
2022/02/24 06:44:34;;;;;;;6.55;1.20;;;7.00;99.90;;;-146.41;100.00;57768.22;4971186;28;20062;-66
2022/02/24 06:47:01;;;;;;;5.28;1.05;;;7.10;99.90;;;-146.41;100.00;57768.22;4974518;28;20050;-66
2022/02/24 06:49:28;;;;;;;5.68;1.08;;;7.10;99.90;;;-146.41;100.00;57768.22;4977362;28;20060;-68
2022/02/24 06:51:57;;;;;;;5.75;0.98;;;7.10;99.90;;;-146.41;100.00;57768.22;4976078;28;20146;-69
2022/02/24 06:54:25;;;;;;;5.30;1.55;;;7.10;99.90;;;-146.41;100.00;57768.22;4973497;28;20051;-68
2022/02/24 06:56:53;;;;;;;7.88;1.48;;;7.10;99.90;;;-146.41;100.00;57768.22;4978306;28;20082;-68
2022/02/24 06:59:20;;;;;;;5.68;1.30;;;7.10;99.90;;;-146.41;100.00;57768.22;4977815;28;20050;-68
2022/02/24 07:01:47;;;;;;;6.18;1.00;;;7.10;99.90;;;-146.41;100.00;57768.22;4976584;28;20067;-68
2022/02/24 07:04:14;;;;;;;5.72;1.33;;;7.10;99.90;;;-146.41;100.00;57768.22;4977357;28;20415;-68
2022/02/24 07:06:43;;;;;;;2.72;0.82;;;7.10;99.90;;;-146.41;100.00;57768.22;4979325;28;20050;-69
2022/02/24 07:09:10;;;;;;;5.10;0.88;;;7.10;99.90;;;-146.41;100.00;57768.22;4977316;28;20142;-68
2022/02/24 07:11:38;;;;;;;8.43;1.20;;;7.10;99.90;;;-146.41;100.00;57768.22;4973901;28;20047;-68
2022/02/24 07:14:06;;;;;;;5.90;1.10;;;7.10;99.90;;;-146.41;100.00;57768.22;4979360;28;20426;-68
2022/02/24 07:16:35;;;;;;;7.38;1.02;;;7.20;99.90;;;-146.41;100.00;57768.22;4979358;28;20556;-68
2022/02/24 07:19:04;;;;;;;8.43;1.10;;;7.20;99.90;;;-146.41;100.00;57768.22;4979100;28;20144;-68
2022/02/24 07:21:31;;;;;;;6.20;1.40;;;7.20;99.90;;;-146.41;100.00;57768.22;4980201;28;20486;-68
2022/02/24 07:23:58;;;;;;;7.22;1.33;;;7.30;99.90;;;-146.41;100.00;57768.22;4979142;28;20085;-68
2022/02/24 07:26:25;;;;;;;7.80;1.20;;;7.20;99.90;;;-146.41;100.00;57768.22;4981712;28;20303;-68
2022/02/24 07:28:52;;;;;;;4.53;1.05;;;7.30;99.90;;;-146.41;100.00;57768.22;4958745;28;20126;-68
2022/02/24 07:31:21;;;;;;;3.47;0.90;;;7.30;99.90;;;-146.41;100.00;57768.22;4976893;28;20468;-68
2022/02/24 07:33:49;;;;;;;5.50;1.08;;;7.40;99.90;;;-146.41;100.00;57768.22;4972711;28;20136;-68
2022/02/24 07:36:16;;;;;;;7.13;1.10;;;7.30;99.90;;;-146.41;100.00;57768.22;4960409;28;20492;-69
2022/02/24 07:38:43;;;;;;;10.50;1.10;;;7.40;99.90;;;-146.41;100.00;57768.22;4976702;28;20133;-68
2022/02/24 07:41:11;;;;;;;3.60;0.90;;;7.50;99.90;;;-146.41;100.00;57768.22;4977215;28;20079;-68
2022/02/24 07:43:38;;;;;;;6.47;1.10;;;7.60;99.90;;;-146.41;100.00;57768.22;4979530;28;20250;-68
2022/02/24 07:46:05;;;;;;;4.30;0.90;;;7.70;99.90;;;-146.41;100.00;57768.22;4979175;28;20125;-68
2022/02/24 07:48:32;;;;;;;4.55;1.30;;;7.80;99.90;;;-146.41;100.00;57768.22;4981985;28;20082;-68
2022/02/24 07:50:59;;;;;;;7.45;1.00;;;7.80;99.90;;;-146.41;100.00;57768.22;4981364;28;20101;-69
2022/02/24 07:53:28;;;;;;;4.78;1.15;;;7.80;99.90;;;-146.41;100.00;57768.22;4980440;28;20082;-68
2022/02/24 07:55:55;;;;;;;8.27;1.42;;;7.90;99.90;;;-146.41;100.00;57768.22;4981216;28;20050;-68
2022/02/24 07:58:22;;;;;;;6.90;1.10;;;8.00;99.90;;;-146.41;100.00;57768.22;4980638;28;20088;-68
2022/02/24 08:00:49;;;;;;;5.53;1.15;;;8.20;99.90;;;-146.41;100.00;57768.22;4983730;28;20181;-68
2022/02/24 08:03:17;;;;;;;5.13;0.90;;;8.20;99.90;;;-146.41;100.00;57768.22;4982956;28;20081;-68
2022/02/24 08:05:45;;;;;;;4.13;1.10;;;8.30;99.90;;;-146.41;100.00;57768.22;4982708;28;20146;-68
2022/02/24 08:08:12;;;;;;;3.40;1.25;;;8.30;99.90;;;-146.41;100.00;57768.22;4980308;28;20479;-68
2022/02/24 08:10:38;;;;;;;4.38;0.90;;;8.30;99.90;;;-146.41;100.00;57768.22;4982886;28;20206;-68
2022/02/24 08:13:05;;;;;;;4.25;1.17;;;8.30;99.90;;;-146.41;100.00;57768.22;4979542;28;20149;-68
2022/02/24 08:15:32;;;;;;;3.30;1.00;;;8.40;99.90;;;-146.41;100.00;57768.22;4981981;28;20081;-68
2022/02/24 08:18:00;;;;;;;5.40;1.10;;;8.40;99.90;;;-146.41;100.00;57768.22;4966429;28;20256;-68
2022/02/24 08:20:27;;;;;;;5.70;1.00;;;8.50;99.90;;;-146.41;100.00;57768.22;4980240;28;20137;-68
2022/02/24 08:22:54;;;;;;;4.57;0.90;;;8.60;99.90;;;-146.41;100.00;57768.22;4981376;28;20133;-68
2022/02/24 08:25:23;;;;;;;6.82;0.90;;;8.60;99.90;;;-146.41;100.00;57768.22;4983725;28;20050;-69
2022/02/24 08:27:50;;;;;;;6.72;1.15;;;8.70;99.90;;;-146.41;100.00;57768.22;4976800;28;20462;-69
2022/02/24 08:30:18;;;;;;;3.63;1.08;;;8.70;99.90;;;-146.41;100.00;57768.22;4978452;28;20133;-67
2022/02/24 08:32:46;;;;;;;7.47;1.15;;;8.80;99.90;;;-146.41;100.00;57768.22;4982037;28;20507;-67
2022/02/24 08:35:15;;;;;;;7.35;1.45;;;8.80;99.90;;;-146.41;100.00;57768.22;4977105;28;20081;-68
2022/02/24 08:37:44;;;;;;;5.60;1.10;;;8.80;99.90;;;-146.41;100.00;57768.22;4983574;28;20514;-68
2022/02/24 08:40:12;;;;;;;8.27;1.15;;;8.80;99.90;;;-146.41;100.00;57768.22;4980592;28;20046;-67
2022/02/24 08:42:41;;;;;;;5.95;1.25;;;8.80;99.90;;;-146.41;100.00;57768.22;4983599;28;20057;-68
2022/02/24 08:45:09;;;;;;;7.35;1.23;;;8.90;99.90;;;-146.41;100.00;57768.22;4982801;28;20138;-68
2022/02/24 08:47:39;;;;;;;4.28;1.40;;;9.10;99.90;;;-146.41;100.00;57768.22;4964758;28;20065;-67
2022/02/24 08:50:09;;;;;;;8.35;2.35;;;9.10;99.90;;;-146.41;100.00;57768.22;4959870;28;20130;-68
2022/02/24 08:52:57;;;;;;;3.42;1.10;;;9.10;99.90;;;-146.41;100.00;57768.22;4971436;28;20046;-68
2022/02/24 08:55:25;;;;;;;5.15;1.10;;;9.20;99.90;;;-146.41;100.00;57768.22;4979746;28;20085;-67
2022/02/24 08:57:52;;;;;;;5.13;1.38;;;9.30;99.90;;;-146.41;100.00;57768.22;4977512;28;20053;-68
2022/02/24 09:00:24;;;;;;;6.90;1.25;;;9.30;99.90;;;-146.41;100.00;57768.22;4978959;28;20066;-67
2022/02/24 09:02:51;;;;;;;6.53;1.02;;;9.60;99.90;;;-146.41;100.00;57768.22;4980698;28;20519;-67
2022/02/24 09:05:18;;;;;;;7.32;1.55;;;9.90;99.90;;;-146.41;100.00;57768.22;4967812;28;20054;-67
2022/02/24 09:07:45;;;;;;;4.20;1.40;;;10.10;99.90;;;-146.41;100.00;57768.22;4978752;28;20534;-68
2022/02/24 09:10:30;;;;;;;3.42;0.98;;;10.30;99.90;;;-146.41;100.00;57768.22;4981084;28;20141;-67
2022/02/24 09:12:58;;;;;;;6.72;1.60;;;10.50;99.90;;;-146.41;100.00;57768.22;4980065;28;20129;-68
2022/02/24 09:15:26;;;;;;;5.90;1.75;;;10.60;99.90;;;-146.41;100.00;57768.22;4978788;28;20562;-67
2022/02/24 09:17:54;;;;;;;7.68;1.05;;;10.80;99.90;;;-146.41;100.00;57768.22;4949318;28;20089;-67
2022/02/24 09:20:21;;;;;;;4.05;1.00;;;10.70;99.90;;;-146.41;100.00;57768.22;4980156;28;20179;-68
2022/02/24 09:22:48;;;;;;;5.88;1.27;;;10.70;99.90;;;-146.41;100.00;57768.22;4965563;28;20130;-67
2022/02/24 09:25:15;;;;;;;5.35;1.17;;;10.70;99.90;;;-146.41;100.00;57768.22;4978281;28;20531;-67
2022/02/24 09:27:42;;;;;;;6.72;1.13;;;10.70;99.90;;;-146.41;100.00;57768.22;4983890;28;20056;-67
2022/02/24 09:30:10;;;;;;;6.20;1.27;;;10.60;99.90;;;-146.41;100.00;57768.22;4971607;28;20074;-67
2022/02/24 09:32:39;;;;;;;3.60;1.30;;;10.40;99.90;;;-146.41;100.00;57768.22;4980414;28;20136;-68
2022/02/24 09:35:09;;;;;;;5.63;1.27;;;10.40;99.90;;;-146.41;100.00;57768.22;4976617;28;20158;-67
2022/02/24 09:37:39;;;;;;;3.58;1.13;;;10.20;99.90;;;-146.41;100.00;57768.22;4978078;28;20054;-68
2022/02/24 09:40:10;;;;;;;2.97;1.10;;;10.10;99.90;;;-146.41;100.00;57768.22;4982909;28;20570;-68
2022/02/24 09:42:57;;;;;;;5.10;1.63;;;10.00;99.90;;;-146.41;100.00;57768.22;4967076;28;20054;-67
2022/02/24 09:45:25;;;;;;;7.50;1.52;;;10.10;99.90;;;-146.41;100.00;57768.22;4976834;28;20112;-68
2022/02/24 09:47:56;;;;;;;4.60;1.73;;;10.20;99.90;;;-146.41;100.00;57768.22;4980752;28;20240;-68
2022/02/24 09:50:26;;;;;;;4.95;1.38;;;10.20;99.90;;;-146.41;100.00;57768.22;4966501;28;20137;-67
2022/02/24 09:52:53;;;;;;;3.78;1.25;;;10.20;99.90;;;-146.41;100.00;57768.22;4982246;28;20307;-67
2022/02/24 09:55:20;;;;;;;6.78;1.55;;;10.20;99.90;;;-146.41;100.00;57768.22;4979681;28;21275;-68
2022/02/24 09:57:47;;;;;;;7.10;1.27;;;10.20;99.90;;;-146.41;100.00;57768.22;4980014;28;20133;-68
2022/02/24 10:00:15;;;;;;;4.90;1.58;;;10.00;99.90;;;-146.41;100.00;57768.22;4967777;28;20093;-67
2022/02/24 10:02:44;;;;;;;7.68;1.65;;;10.00;99.90;;;-146.41;100.00;57768.22;4975363;28;20043;-67
2022/02/24 10:05:14;;;;;;;7.13;2.00;;;10.00;99.90;;;-146.41;100.00;57768.22;4963150;28;20105;-67
2022/02/24 10:07:43;;;;;;;15.10;1.80;;;9.90;99.90;;;-146.41;100.00;57768.22;4978308;28;20105;-68